»·PEaware :: N1718G KLAX-KSAN

N1718G :: KLAX-KSAN

FLIGHT INFORMATION

Flight Status: Arrived
Operator: Privately registered:
United States
More flights under this callsign
Pilot: Spencer M. (27733)
Aircraft: CESSNA 172 SKYHAWK
(C172)
More flights by this aircraft type
Origin: KLAX Los Angeles Intl
United States
Destination: KSAN San Diego Intl-Lindbergh
United States
More flights between these airports :: More routes between these airports
Route: +
File this flight plan on PilotEdge
Remarks:
Altitude:
(Current/Filed)
5,500ft
Speed:
(Current/Filed)
0kts
Departed: 13-Feb-20 07:54 PM
Arrived: 13-Feb-20 08:50 PM
Distance/Time
Traveled:
95nm/0:56
Distance/Time
To Go:
Arrived

Flight Plot

Page will automatically refresh every two minutes.


Map Options




Map Legend


Flown Route
Filed Route
Departure Airport
Arrival Airport
Navaid (VOR, NDB)
Fix

Horizontal Profiles

Position Reports

Time Latitude Longitude Heading Altitude Ground
Speed
13-Feb-20 19:41 33.933634 -118.399303 174 111ft 0kts
13-Feb-20 19:42 33.933634 -118.399303 174 111ft 0kts
13-Feb-20 19:43 33.933634 -118.399303 174 111ft 0kts
13-Feb-20 19:44 33.933634 -118.399303 174 111ft 0kts
13-Feb-20 19:45 33.933634 -118.399303 174 111ft 0kts
13-Feb-20 19:46 33.933634 -118.399303 174 111ft 0kts
13-Feb-20 19:47 33.933918 -118.398402 26 109ft 4kts
13-Feb-20 19:48 33.934756 -118.396090 82 106ft 13kts
13-Feb-20 19:49 33.935283 -118.393654 4 103ft 0kts
13-Feb-20 19:50 33.935283 -118.393654 4 103ft 0kts
13-Feb-20 19:51 33.935283 -118.393654 4 103ft 0kts
13-Feb-20 19:52 33.935283 -118.393654 4 103ft 0kts
13-Feb-20 19:53 33.935593 -118.400582 263 167ft 83kts
13-Feb-20 19:54 33.932656 -118.435215 268 766ft 119kts
13-Feb-20 19:55 33.930631 -118.476273 266 1092ft 129kts
13-Feb-20 19:56 33.908450 -118.490687 140 1620ft 109kts
13-Feb-20 19:57 33.888243 -118.463438 132 2070ft 105kts
13-Feb-20 19:58 33.868066 -118.438075 132 2542ft 106kts
13-Feb-20 19:59 33.848654 -118.411754 131 2989ft 106kts
13-Feb-20 20:00 33.826728 -118.381935 131 3007ft 125kts
13-Feb-20 20:01 33.804246 -118.351317 131 3001ft 116kts
13-Feb-20 20:02 33.783076 -118.322409 131 3001ft 116kts
13-Feb-20 20:03 33.760984 -118.292168 131 3005ft 122kts
13-Feb-20 20:04 33.738354 -118.261122 131 2932ft 125kts
13-Feb-20 20:05 33.715742 -118.230028 131 2926ft 122kts
13-Feb-20 20:06 33.693347 -118.199158 131 2926ft 122kts
13-Feb-20 20:07 33.670584 -118.168682 132 2926ft 122kts
13-Feb-20 20:08 33.647840 -118.138274 131 2926ft 122kts
13-Feb-20 20:09 33.625127 -118.107837 131 2926ft 122kts
13-Feb-20 20:10 33.602427 -118.077344 131 2926ft 122kts
13-Feb-20 20:11 33.579734 -118.046787 131 2926ft 123kts
13-Feb-20 20:12 33.557005 -118.016109 131 2926ft 123kts
13-Feb-20 20:13 33.533897 -117.985750 137 2978ft 119kts
13-Feb-20 20:14 33.511781 -117.963483 143 3740ft 93kts
13-Feb-20 20:15 33.492463 -117.946238 142 4522ft 80kts
13-Feb-20 20:16 33.473781 -117.927850 138 5342ft 95kts
13-Feb-20 20:17 33.449500 -117.902767 139 5440ft 125kts
13-Feb-20 20:18 33.422845 -117.875216 139 5425ft 128kts
13-Feb-20 20:19 33.396842 -117.848288 138 5420ft 120kts
13-Feb-20 20:20 33.371634 -117.822120 138 5420ft 120kts
13-Feb-20 20:21 33.346515 -117.795980 138 5431ft 119kts
13-Feb-20 20:22 33.321441 -117.769828 138 5431ft 119kts
13-Feb-20 20:23 33.296290 -117.743534 138 5431ft 119kts
13-Feb-20 20:24 33.270878 -117.717925 140 5431ft 119kts
13-Feb-20 20:25 33.245048 -117.692657 140 5431ft 119kts
13-Feb-20 20:26 33.219333 -117.667442 140 5431ft 119kts
13-Feb-20 20:27 33.193577 -117.642128 140 5431ft 119kts
13-Feb-20 20:28 33.168450 -117.617382 140 5333ft 115kts
13-Feb-20 20:29 33.146396 -117.588924 127 4897ft 120kts
13-Feb-20 20:30 33.126686 -117.555897 115 4298ft 123kts
13-Feb-20 20:31 33.112490 -117.518727 115 3694ft 120kts
13-Feb-20 20:32 33.097289 -117.483860 119 3092ft 118kts
13-Feb-20 20:33 33.080661 -117.452371 123 2891ft 103kts
13-Feb-20 20:34 33.064154 -117.423154 124 2768ft 114kts
13-Feb-20 20:35 33.040431 -117.397760 144 2268ft 115kts
13-Feb-20 20:36 33.013518 -117.376612 145 1767ft 116kts
13-Feb-20 20:37 32.986976 -117.355171 145 1434ft 114kts
13-Feb-20 20:38 32.960894 -117.334112 147 1432ft 112kts
13-Feb-20 20:39 32.934504 -117.314226 147 1432ft 112kts
13-Feb-20 20:40 32.907943 -117.294576 146 1432ft 112kts
13-Feb-20 20:41 32.881690 -117.274401 147 1432ft 112kts
13-Feb-20 20:42 32.855238 -117.254328 146 1433ft 112kts
13-Feb-20 20:43 32.828328 -117.237018 159 1357ft 107kts
13-Feb-20 20:44 32.800554 -117.227309 166 1180ft 101kts
13-Feb-20 20:45 32.773327 -117.220157 169 996ft 97kts
13-Feb-20 20:46 32.752312 -117.203974 114 922ft 92kts
13-Feb-20 20:47 32.745011 -117.177890 108 642ft 72kts
13-Feb-20 20:48 32.732224 -117.165975 189 511ft 63kts
13-Feb-20 20:49 32.731743 -117.182387 284 14ft 38kts
13-Feb-20 20:50 32.732742 -117.188329 214 16ft 13kts
13-Feb-20 20:51 32.734220 -117.187733 104 17ft 11kts
13-Feb-20 20:52 32.732704 -117.179675 57 20ft 18kts
13-Feb-20 20:53 32.734080 -117.182660 318 17ft 0kts

Navigation Log

Ident Type
Flight plan parsing failed, navigation log unavailable